Ocean Navigator — WSC2552 — position and weather

sailwx.info

Track history (hours):
 
Tides and Currents Weather Stations Pressure Air Temp Water Temp Dewpoint Dewpoint Depression Visibility Wind Speed Wind Dir Waves Ship Positions

Ocean Navigator

Owner: OCEAN NAVIGATOR INC, SEATTLE, WA. More information available from US FCC via Universal Licensing System and Coast Guard Vessel Documentation Center.

Last reported at 2015-May-24 00:08 UTC. Time now 2015-May-24 07:20 UTC.
Position N 49°51' W 124°57'.

Type: Tow > 200 m length. MMSI: 366358000.

Date/timePositionNaut miles runAvg speedWind from/ knotsBaromVisibWave heightAir tempDewpointWater temp
2015-May-24 00:08N 49°51' W 124°57'14 5.3
2015-May-23 21:24N 49°42' W 124°39'7 5.7
2015-May-23 20:11N 49°38' W 124°31'8 4.8
2015-May-23 18:29N 49°33' W 124°20'6 6.4
2015-May-23 17:33N 49°31' W 124°12'11 9.9
2015-May-23 16:28N 49°24' W 123°58'10 9.6
2015-May-23 15:28N 49°19' W 123°46'9 9.5
2015-May-23 14:33N 49°13' W 123°37'10 9.8
2015-May-23 13:33N 49°07' W 123°25'1010.1
2015-May-23 12:33N 49°00' W 123°14'10 9.7
2015-May-23 11:33N 48°54' W 123°02'10 9.3
2015-May-23 10:31N 48°47' W 122°51'8 8.9
2015-May-23 09:33N 48°41' W 122°43'7 7.5
2015-May-23 08:38N 48°35' W 122°45'1 7.7
2015-May-23 08:33N 48°34' W 122°45'9 8.6
2015-May-23 07:32N 48°25' W 122°44'12 9.2
2015-May-23 06:15N 48°14' W 122°48'7 9.5
2015-May-23 05:30N 48°08' W 122°41'8 8.5
2015-May-23 04:32N 48°01' W 122°37'6 8.9
2015-May-23 03:51N 47°56' W 122°31'3 8.9
2015-May-23 03:33N 47°54' W 122°28'0 8.9
2015-May-23 03:30N 47°54' W 122°28'9 9.4
2015-May-23 02:33N 47°45' W 122°26'0 9.2
2015-May-23 02:31N 47°45' W 122°26'8 8.6
2015-May-23 01:33N 47°36' W 122°23'1 7.4
2015-May-23 01:25N 47°36' W 122°22'3 3.3
2015-May-23 00:31N 47°33' W 122°20'0 0.0
2015-May-23 00:29N 47°33' W 122°20'3 3.6
2015-May-22 23:33N 47°36' W 122°22'110.0
2015-May-22 23:29N 47°37' W 122°23'3 3.7
2015-May-22 22:33N 47°40' W 122°24'0 0.0
2015-May-22 22:29N 47°40' W 122°24'0 0.3
2015-May-22 21:33N 47°40' W 122°24'0 0.0
2015-May-22 21:29N 47°40' W 122°24'0 0.5
2015-May-22 20:34N 47°40' W 122°23'049.0
2015-May-22 20:33N 47°40' W 122°23'1 0.7
2015-May-22 19:33N 47°39' W 122°22'0 0.0
2015-May-22 19:33N 47°39' W 122°22'0 0.0
2015-May-22 18:33N 47°39' W 122°22'0 0.0
2015-May-22 18:33N 47°39' W 122°22'0 0.0
2015-May-22 01:58N 47°39' W 122°22'0 0.0
2015-May-22 01:34N 47°39' W 122°22'0 0.0
2015-May-22 01:33N 47°39' W 122°22'2 1.8
2015-May-22 00:33N 47°40' W 122°24'0 0.4
2015-May-22 00:32N 47°40' W 122°24'4 4.2
2015-May-21 23:33N 47°36' W 122°23'0 1.0
2015-May-21 23:32N 47°36' W 122°23'8 8.3
2015-May-21 22:34N 47°44' W 122°27'011.2
2015-May-21 22:31N 47°44' W 122°27'1010.1
2015-May-21 21:33N 47°54' W 122°30'2 9.6
2015-May-21 21:20N 47°55' W 122°31'7 8.8
2015-May-21 20:30N 48°01' W 122°38'7 6.9
2015-May-21 19:29N 48°08' W 122°42'14 6.8
2015-May-21 17:29N 48°21' W 122°46'1112.1
2015-May-21 16:33N 48°32' W 122°45'1110.9
2015-May-21 15:33N 48°43' W 122°46'1010.4
2015-May-21 14:33N 48°50' W 122°58'1010.4
2015-May-21 13:33N 48°56' W 123°11'1010.0
2015-May-21 12:33N 49°02' W 123°22'10 9.8
2015-May-21 11:33N 49°09' W 123°34'1110.5
2015-May-21 10:33N 49°16' W 123°46'1010.0
2015-May-21 09:30N 49°23' W 123°57'9 9.7
2015-May-21 08:33N 49°29' W 124°09'1310.0
2015-May-21 07:16N 49°35' W 124°26'9 9.9
2015-May-21 06:21N 49°40' W 124°37'910.2
2015-May-21 05:30N 49°45' W 124°48'80 7.3
2015-May-20 18:29N 50°30' W 126°32'9 7.1
2015-May-20 17:11N 50°36' W 126°43'6 8.9
2015-May-20 16:30N 50°39' W 126°51'8 8.8
2015-May-20 15:33N 50°44' W 127°02'9 8.9
2015-May-20 14:32N 50°49' W 127°14'9 9.0
2015-May-20 13:33N 50°55' W 127°24'8 8.2
2015-May-20 12:33N 50°59' W 127°35'9 9.2
2015-May-20 11:33N 51°06' W 127°45'11 9.7
2015-May-20 10:27N 51°15' W 127°55'9 9.9
2015-May-20 09:32N 51°23' W 128°00'249 6.3
2015-May-18 18:00N 55°06' W 131°06'273 9.0 230 / 151020.0 2.2 0.511.1
2015-May-17 11:33N 51°03' W 127°40'1010.1
2015-May-17 10:33N 50°56' W 127°28'1010.1
2015-May-17 09:33N 50°50' W 127°15'10 9.8
2015-May-17 08:33N 50°44' W 127°03'9 9.2
2015-May-17 07:33N 50°39' W 126°50'8 8.5
2015-May-17 06:33N 50°33' W 126°41'9 9.2
2015-May-17 05:33N 50°30' W 126°27'10 9.7
2015-May-17 04:31N 50°29' W 126°12'72 9.0
2015-May-16 20:31N 49°44' W 124°44'19 9.9
2015-May-16 18:33N 49°33' W 124°19'13 9.5
2015-May-16 17:13N 49°26' W 124°02'10 9.4
2015-May-16 16:07N 49°21' W 123°49'5 9.1
2015-May-16 15:32N 49°18' W 123°42'9 9.4
2015-May-16 14:33N 49°12' W 123°31'10 9.7
2015-May-16 13:33N 49°05' W 123°21'10 9.6
2015-May-16 12:33N 48°58' W 123°10'10 9.6
2015-May-16 11:33N 48°52' W 122°60'1110.4
2015-May-16 10:33N 48°46' W 122°47'1010.1
2015-May-16 09:33N 48°36' W 122°45'1211.5
2015-May-16 08:32N 48°24' W 122°44'18 7.6
2015-May-16 06:11N 48°07' W 122°39'6 9.4
2015-May-16 05:32N 48°01' W 122°36'3 9.9
2015-May-16 05:17N 47°59' W 122°34'7 9.6
2015-May-16 04:33N 47°53' W 122°28'1 9.8
2015-May-16 04:26N 47°52' W 122°28'910.1
2015-May-16 03:33N 47°43' W 122°26'010.2
2015-May-16 03:31N 47°43' W 122°26'8 8.1
2015-May-16 02:33N 47°36' W 122°22'0 1.5
2015-May-16 02:31N 47°36' W 122°22'3 2.3
2015-May-16 01:19N 47°33' W 122°20'0 0.0
2015-May-16 01:15N 47°33' W 122°20'0 0.0
2015-May-16 00:39N 47°33' W 122°20'0 0.0
2015-May-16 00:33N 47°33' W 122°20'0 0.0
2015-May-15 23:31N 47°33' W 122°20'0 0.0
2015-May-15 23:30N 47°33' W 122°20'1 0.7
2015-May-15 22:30N 47°34' W 122°21'7 7.3
2015-May-15 21:34N 47°39' W 122°27'3 2.7
2015-May-15 20:33N 47°40' W 122°23'1 0.5
2015-May-15 19:33N 47°39' W 122°22'0 0.0
2015-May-15 10:09N 47°39' W 122°22'1 2.3
2015-May-15 09:33N 47°40' W 122°24'5 4.6
2015-May-15 08:33N 47°36' W 122°22'0 0.4
2015-May-15 07:33N 47°36' W 122°23'8 7.6
2015-May-15 06:33N 47°42' W 122°27'10 9.8
2015-May-15 05:33N 47°52' W 122°29'35 8.8
2015-May-15 01:33N 48°26' W 122°45'1111.0
2015-May-15 00:33N 48°37' W 122°45'13 9.1
2015-May-14 23:08N 48°48' W 122°55'6 9.0
2015-May-14 22:30N 48°51' W 123°02'9 9.7
2015-May-14 21:33N 48°57' W 123°13'10 9.8
2015-May-14 20:33N 49°04' W 123°24'9 9.1
2015-May-14 19:33N 49°10' W 123°33'10 9.5
2015-May-14 18:33N 49°17' W 123°43'10 9.3
2015-May-14 17:31N 49°23' W 123°55'12 9.4
2015-May-14 16:14N 49°30' W 124°10'9 9.9
2015-May-14 15:19N 49°34' W 124°23'10 9.7
2015-May-14 14:15N 49°40' W 124°36'1010.1
2015-May-14 13:14N 49°46' W 124°49'68 8.8
2015-May-14 05:31N 50°29' W 126°12'1010.5
2015-May-14 04:33N 50°30' W 126°27'10 9.3
2015-May-14 03:31N 50°34' W 126°41'1110.7
2015-May-14 02:30N 50°41' W 126°54'10 9.9
2015-May-14 01:30N 50°46' W 127°08'1010.5
2015-May-14 00:32N 50°52' W 127°20'  
Track history (hours):
 
Tides and Currents Weather Stations Pressure Air Temp Water Temp Dewpoint Dewpoint Depression Visibility Wind Speed Wind Dir Waves Ship Positions

Ocean Navigator

Owner: OCEAN NAVIGATOR INC, SEATTLE, WA. More information available from US FCC via Universal Licensing System and Coast Guard Vessel Documentation Center.

Last reported at 2015-May-24 00:08 UTC. Time now 2015-May-24 07:20 UTC.
Position N 49°51' W 124°57'.

Type: Tow > 200 m length. MMSI: 366358000.

Date/timePositionNaut miles runAvg speedWind from/ knotsBaromVisibWave heightAir tempDewpointWater temp
2015-May-24 00:08N 49°51' W 124°57'14 5.3
2015-May-23 21:24N 49°42' W 124°39'7 5.7
2015-May-23 20:11N 49°38' W 124°31'8 4.8
2015-May-23 18:29N 49°33' W 124°20'6 6.4
2015-May-23 17:33N 49°31' W 124°12'11 9.9
2015-May-23 16:28N 49°24' W 123°58'10 9.6
2015-May-23 15:28N 49°19' W 123°46'9 9.5
2015-May-23 14:33N 49°13' W 123°37'10 9.8
2015-May-23 13:33N 49°07' W 123°25'1010.1
2015-May-23 12:33N 49°00' W 123°14'10 9.7
2015-May-23 11:33N 48°54' W 123°02'10 9.3
2015-May-23 10:31N 48°47' W 122°51'8 8.9
2015-May-23 09:33N 48°41' W 122°43'7 7.5
2015-May-23 08:38N 48°35' W 122°45'1 7.7
2015-May-23 08:33N 48°34' W 122°45'9 8.6
2015-May-23 07:32N 48°25' W 122°44'12 9.2
2015-May-23 06:15N 48°14' W 122°48'7 9.5
2015-May-23 05:30N 48°08' W 122°41'8 8.5
2015-May-23 04:32N 48°01' W 122°37'6 8.9
2015-May-23 03:51N 47°56' W 122°31'3 8.9
2015-May-23 03:33N 47°54' W 122°28'0 8.9
2015-May-23 03:30N 47°54' W 122°28'9 9.4
2015-May-23 02:33N 47°45' W 122°26'0 9.2
2015-May-23 02:31N 47°45' W 122°26'8 8.6
2015-May-23 01:33N 47°36' W 122°23'1 7.4
2015-May-23 01:25N 47°36' W 122°22'3 3.3
2015-May-23 00:31N 47°33' W 122°20'0 0.0
2015-May-23 00:29N 47°33' W 122°20'3 3.6
2015-May-22 23:33N 47°36' W 122°22'110.0
2015-May-22 23:29N 47°37' W 122°23'3 3.7
2015-May-22 22:33N 47°40' W 122°24'0 0.0
2015-May-22 22:29N 47°40' W 122°24'0 0.3
2015-May-22 21:33N 47°40' W 122°24'0 0.0
2015-May-22 21:29N 47°40' W 122°24'0 0.5
2015-May-22 20:34N 47°40' W 122°23'049.0
2015-May-22 20:33N 47°40' W 122°23'1 0.7
2015-May-22 19:33N 47°39' W 122°22'0 0.0
2015-May-22 19:33N 47°39' W 122°22'0 0.0
2015-May-22 18:33N 47°39' W 122°22'0 0.0
2015-May-22 18:33N 47°39' W 122°22'0 0.0
2015-May-22 01:58N 47°39' W 122°22'0 0.0
2015-May-22 01:34N 47°39' W 122°22'0 0.0
2015-May-22 01:33N 47°39' W 122°22'2 1.8
2015-May-22 00:33N 47°40' W 122°24'0 0.4
2015-May-22 00:32N 47°40' W 122°24'4 4.2
2015-May-21 23:33N 47°36' W 122°23'0 1.0
2015-May-21 23:32N 47°36' W 122°23'8 8.3
2015-May-21 22:34N 47°44' W 122°27'011.2
2015-May-21 22:31N 47°44' W 122°27'1010.1
2015-May-21 21:33N 47°54' W 122°30'2 9.6
2015-May-21 21:20N 47°55' W 122°31'7 8.8
2015-May-21 20:30N 48°01' W 122°38'7 6.9
2015-May-21 19:29N 48°08' W 122°42'14 6.8
2015-May-21 17:29N 48°21' W 122°46'1112.1
2015-May-21 16:33N 48°32' W 122°45'1110.9
2015-May-21 15:33N 48°43' W 122°46'1010.4
2015-May-21 14:33N 48°50' W 122°58'1010.4
2015-May-21 13:33N 48°56' W 123°11'1010.0
2015-May-21 12:33N 49°02' W 123°22'10 9.8
2015-May-21 11:33N 49°09' W 123°34'1110.5
2015-May-21 10:33N 49°16' W 123°46'1010.0
2015-May-21 09:30N 49°23' W 123°57'9 9.7
2015-May-21 08:33N 49°29' W 124°09'1310.0
2015-May-21 07:16N 49°35' W 124°26'9 9.9
2015-May-21 06:21N 49°40' W 124°37'910.2
2015-May-21 05:30N 49°45' W 124°48'80 7.3
2015-May-20 18:29N 50°30' W 126°32'9 7.1
2015-May-20 17:11N 50°36' W 126°43'6 8.9
2015-May-20 16:30N 50°39' W 126°51'8 8.8
2015-May-20 15:33N 50°44' W 127°02'9 8.9
2015-May-20 14:32N 50°49' W 127°14'9 9.0
2015-May-20 13:33N 50°55' W 127°24'8 8.2
2015-May-20 12:33N 50°59' W 127°35'9 9.2
2015-May-20 11:33N 51°06' W 127°45'11 9.7
2015-May-20 10:27N 51°15' W 127°55'9 9.9
2015-May-20 09:32N 51°23' W 128°00'249 6.3
2015-May-18 18:00N 55°06' W 131°06'273 9.0 230 / 151020.0 2.2 0.511.1
2015-May-17 11:33N 51°03' W 127°40'1010.1
2015-May-17 10:33N 50°56' W 127°28'1010.1
2015-May-17 09:33N 50°50' W 127°15'10 9.8
2015-May-17 08:33N 50°44' W 127°03'9 9.2
2015-May-17 07:33N 50°39' W 126°50'8 8.5
2015-May-17 06:33N 50°33' W 126°41'9 9.2
2015-May-17 05:33N 50°30' W 126°27'10 9.7
2015-May-17 04:31N 50°29' W 126°12'72 9.0
2015-May-16 20:31N 49°44' W 124°44'19 9.9
2015-May-16 18:33N 49°33' W 124°19'13 9.5
2015-May-16 17:13N 49°26' W 124°02'10 9.4
2015-May-16 16:07N 49°21' W 123°49'5 9.1
2015-May-16 15:32N 49°18' W 123°42'9 9.4
2015-May-16 14:33N 49°12' W 123°31'10 9.7
2015-May-16 13:33N 49°05' W 123°21'10 9.6
2015-May-16 12:33N 48°58' W 123°10'10 9.6
2015-May-16 11:33N 48°52' W 122°60'1110.4
2015-May-16 10:33N 48°46' W 122°47'1010.1
2015-May-16 09:33N 48°36' W 122°45'1211.5
2015-May-16 08:32N 48°24' W 122°44'18 7.6
2015-May-16 06:11N 48°07' W 122°39'6 9.4
2015-May-16 05:32N 48°01' W 122°36'3 9.9
2015-May-16 05:17N 47°59' W 122°34'7 9.6
2015-May-16 04:33N 47°53' W 122°28'1 9.8
2015-May-16 04:26N 47°52' W 122°28'910.1
2015-May-16 03:33N 47°43' W 122°26'010.2
2015-May-16 03:31N 47°43' W 122°26'8 8.1
2015-May-16 02:33N 47°36' W 122°22'0 1.5
2015-May-16 02:31N 47°36' W 122°22'3 2.3
2015-May-16 01:19N 47°33' W 122°20'0 0.0
2015-May-16 01:15N 47°33' W 122°20'0 0.0
2015-May-16 00:39N 47°33' W 122°20'0 0.0
2015-May-16 00:33N 47°33' W 122°20'0 0.0
2015-May-15 23:31N 47°33' W 122°20'0 0.0
2015-May-15 23:30N 47°33' W 122°20'1 0.7
2015-May-15 22:30N 47°34' W 122°21'7 7.3
2015-May-15 21:34N 47°39' W 122°27'3 2.7
2015-May-15 20:33N 47°40' W 122°23'1 0.5
2015-May-15 19:33N 47°39' W 122°22'0 0.0
2015-May-15 10:09N 47°39' W 122°22'1 2.3
2015-May-15 09:33N 47°40' W 122°24'5 4.6
2015-May-15 08:33N 47°36' W 122°22'0 0.4
2015-May-15 07:33N 47°36' W 122°23'8 7.6
2015-May-15 06:33N 47°42' W 122°27'10 9.8
2015-May-15 05:33N 47°52' W 122°29'35 8.8
2015-May-15 01:33N 48°26' W 122°45'1111.0
2015-May-15 00:33N 48°37' W 122°45'13 9.1
2015-May-14 23:08N 48°48' W 122°55'6 9.0
2015-May-14 22:30N 48°51' W 123°02'9 9.7
2015-May-14 21:33N 48°57' W 123°13'10 9.8
2015-May-14 20:33N 49°04' W 123°24'9 9.1
2015-May-14 19:33N 49°10' W 123°33'10 9.5
2015-May-14 18:33N 49°17' W 123°43'10 9.3
2015-May-14 17:31N 49°23' W 123°55'12 9.4
2015-May-14 16:14N 49°30' W 124°10'9 9.9
2015-May-14 15:19N 49°34' W 124°23'10 9.7
2015-May-14 14:15N 49°40' W 124°36'1010.1
2015-May-14 13:14N 49°46' W 124°49'68 8.8
2015-May-14 05:31N 50°29' W 126°12'1010.5
2015-May-14 04:33N 50°30' W 126°27'10 9.3
2015-May-14 03:31N 50°34' W 126°41'1110.7
2015-May-14 02:30N 50°41' W 126°54'10 9.9
2015-May-14 01:30N 50°46' W 127°08'1010.5
2015-May-14 00:32N 50°52' W 127°20'  

Dump ship's entire track history